sensor_id;sensor_type;location;lat;lon;timestamp;P1;durP1;ratioP1;P2;durP2;ratioP2
50066;SDS011;35952;52.524;13.340;2023-04-06T00:00:53;7.97;;;6.83;;
50066;SDS011;35952;52.524;13.340;2023-04-06T00:03:19;8.50;;;7.70;;
50066;SDS011;35952;52.524;13.340;2023-04-06T00:05:46;7.80;;;6.27;;
50066;SDS011;35952;52.524;13.340;2023-04-06T00:08:12;10.37;;;7.70;;
50066;SDS011;35952;52.524;13.340;2023-04-06T00:10:37;9.37;;;6.80;;
50066;SDS011;35952;52.524;13.340;2023-04-06T00:13:03;6.13;;;5.63;;
50066;SDS011;35952;52.524;13.340;2023-04-06T00:15:30;7.30;;;6.60;;
50066;SDS011;35952;52.524;13.340;2023-04-06T00:17:55;6.70;;;5.90;;
50066;SDS011;35952;52.524;13.340;2023-04-06T00:20:21;7.67;;;6.40;;
50066;SDS011;35952;52.524;13.340;2023-04-06T00:22:48;7.93;;;7.13;;
50066;SDS011;35952;52.524;13.340;2023-04-06T00:25:13;9.20;;;6.53;;
50066;SDS011;35952;52.524;13.340;2023-04-06T00:27:40;8.33;;;7.53;;
50066;SDS011;35952;52.524;13.340;2023-04-06T00:30:06;6.87;;;6.30;;
50066;SDS011;35952;52.524;13.340;2023-04-06T00:32:32;18.10;;;7.80;;
50066;SDS011;35952;52.524;13.340;2023-04-06T00:34:59;7.97;;;7.27;;
50066;SDS011;35952;52.524;13.340;2023-04-06T00:37:24;8.17;;;6.43;;
50066;SDS011;35952;52.524;13.340;2023-04-06T00:39:50;7.40;;;6.50;;
50066;SDS011;35952;52.524;13.340;2023-04-06T00:42:18;6.80;;;6.20;;
50066;SDS011;35952;52.524;13.340;2023-04-06T00:44:50;6.90;;;6.20;;
50066;SDS011;35952;52.524;13.340;2023-04-06T00:47:25;8.20;;;6.80;;
50066;SDS011;35952;52.524;13.340;2023-04-06T00:49:51;19.90;;;6.40;;
50066;SDS011;35952;52.524;13.340;2023-04-06T00:52:19;12.63;;;8.97;;
50066;SDS011;35952;52.524;13.340;2023-04-06T00:54:45;7.70;;;6.90;;
50066;SDS011;35952;52.524;13.340;2023-04-06T00:57:11;8.53;;;6.97;;
50066;SDS011;35952;52.524;13.340;2023-04-06T00:59:38;7.13;;;6.43;;
50066;SDS011;35952;52.524;13.340;2023-04-06T01:02:04;8.23;;;7.40;;
50066;SDS011;35952;52.524;13.340;2023-04-06T01:04:30;8.90;;;6.80;;
50066;SDS011;35952;52.524;13.340;2023-04-06T01:06:56;8.20;;;7.50;;
50066;SDS011;35952;52.524;13.340;2023-04-06T01:09:22;7.80;;;6.17;;
50066;SDS011;35952;52.524;13.340;2023-04-06T01:11:47;8.17;;;6.33;;
50066;SDS011;35952;52.524;13.340;2023-04-06T01:14:13;8.63;;;6.67;;
50066;SDS011;35952;52.524;13.340;2023-04-06T01:16:40;7.60;;;6.80;;
50066;SDS011;35952;52.524;13.340;2023-04-06T01:19:10;10.20;;;6.60;;
50066;SDS011;35952;52.524;13.340;2023-04-06T01:21:36;5.83;;;5.30;;
50066;SDS011;35952;52.524;13.340;2023-04-06T01:24:02;8.00;;;6.53;;
50066;SDS011;35952;52.524;13.340;2023-04-06T01:26:28;7.20;;;6.50;;
50066;SDS011;35952;52.524;13.340;2023-04-06T01:28:54;6.10;;;5.50;;
50066;SDS011;35952;52.524;13.340;2023-04-06T01:31:20;6.73;;;6.13;;
50066;SDS011;35952;52.524;13.340;2023-04-06T01:33:46;7.53;;;6.10;;
50066;SDS011;35952;52.524;13.340;2023-04-06T01:36:12;9.20;;;6.50;;
50066;SDS011;35952;52.524;13.340;2023-04-06T01:38:37;6.73;;;6.13;;
50066;SDS011;35952;52.524;13.340;2023-04-06T01:41:03;13.13;;;7.03;;
50066;SDS011;35952;52.524;13.340;2023-04-06T01:43:28;8.73;;;7.50;;
50066;SDS011;35952;52.524;13.340;2023-04-06T01:45:54;7.77;;;6.90;;
50066;SDS011;35952;52.524;13.340;2023-04-06T01:48:20;7.50;;;6.40;;
50066;SDS011;35952;52.524;13.340;2023-04-06T01:50:46;6.83;;;6.23;;
50066;SDS011;35952;52.524;13.340;2023-04-06T01:53:11;6.50;;;5.90;;
50066;SDS011;35952;52.524;13.340;2023-04-06T01:55:37;7.10;;;6.40;;
50066;SDS011;35952;52.524;13.340;2023-04-06T01:58:02;7.70;;;6.37;;
50066;SDS011;35952;52.524;13.340;2023-04-06T02:00:28;6.43;;;5.80;;
50066;SDS011;35952;52.524;13.340;2023-04-06T02:02:53;7.33;;;6.00;;
50066;SDS011;35952;52.524;13.340;2023-04-06T02:05:19;6.47;;;5.60;;
50066;SDS011;35952;52.524;13.340;2023-04-06T02:07:45;8.87;;;7.00;;
50066;SDS011;35952;52.524;13.340;2023-04-06T02:10:13;8.83;;;7.20;;
50066;SDS011;35952;52.524;13.340;2023-04-06T02:12:39;7.40;;;6.70;;
50066;SDS011;35952;52.524;13.340;2023-04-06T02:15:05;9.67;;;6.90;;
50066;SDS011;35952;52.524;13.340;2023-04-06T02:17:31;9.77;;;7.53;;
50066;SDS011;35952;52.524;13.340;2023-04-06T02:19:56;9.13;;;6.87;;
50066;SDS011;35952;52.524;13.340;2023-04-06T02:22:22;7.13;;;6.30;;
50066;SDS011;35952;52.524;13.340;2023-04-06T02:24:47;7.93;;;7.13;;
50066;SDS011;35952;52.524;13.340;2023-04-06T02:27:16;9.10;;;6.70;;
50066;SDS011;35952;52.524;13.340;2023-04-06T02:29:41;8.10;;;6.80;;
50066;SDS011;35952;52.524;13.340;2023-04-06T02:32:07;7.13;;;6.53;;
50066;SDS011;35952;52.524;13.340;2023-04-06T02:34:32;7.60;;;6.83;;
50066;SDS011;35952;52.524;13.340;2023-04-06T02:36:58;7.43;;;6.60;;
50066;SDS011;35952;52.524;13.340;2023-04-06T02:39:24;8.93;;;6.40;;
50066;SDS011;35952;52.524;13.340;2023-04-06T02:41:49;7.90;;;6.57;;
50066;SDS011;35952;52.524;13.340;2023-04-06T02:44:15;10.17;;;8.10;;
50066;SDS011;35952;52.524;13.340;2023-04-06T02:46:40;8.33;;;6.10;;
50066;SDS011;35952;52.524;13.340;2023-04-06T02:49:06;8.10;;;6.57;;
50066;SDS011;35952;52.524;13.340;2023-04-06T02:51:31;9.83;;;7.10;;
50066;SDS011;35952;52.524;13.340;2023-04-06T02:53:58;7.88;;;7.10;;
50066;SDS011;35952;52.524;13.340;2023-04-06T02:56:23;7.97;;;6.80;;
50066;SDS011;35952;52.524;13.340;2023-04-06T02:58:49;6.97;;;6.37;;
50066;SDS011;35952;52.524;13.340;2023-04-06T03:01:15;9.33;;;6.80;;
50066;SDS011;35952;52.524;13.340;2023-04-06T03:03:41;9.40;;;7.27;;
50066;SDS011;35952;52.524;13.340;2023-04-06T03:06:07;8.13;;;6.60;;
50066;SDS011;35952;52.524;13.340;2023-04-06T03:08:32;8.87;;;7.60;;
50066;SDS011;35952;52.524;13.340;2023-04-06T03:10:58;9.40;;;6.90;;
50066;SDS011;35952;52.524;13.340;2023-04-06T03:13:23;10.97;;;7.17;;
50066;SDS011;35952;52.524;13.340;2023-04-06T03:15:49;10.07;;;7.60;;
50066;SDS011;35952;52.524;13.340;2023-04-06T03:18:14;8.10;;;7.27;;
50066;SDS011;35952;52.524;13.340;2023-04-06T03:20:40;7.13;;;6.43;;
50066;SDS011;35952;52.524;13.340;2023-04-06T03:23:05;7.73;;;7.07;;
50066;SDS011;35952;52.524;13.340;2023-04-06T03:25:31;8.30;;;7.27;;
50066;SDS011;35952;52.524;13.340;2023-04-06T03:27:57;9.17;;;7.77;;
50066;SDS011;35952;52.524;13.340;2023-04-06T03:30:22;11.37;;;7.80;;
50066;SDS011;35952;52.524;13.340;2023-04-06T03:32:48;8.00;;;6.90;;
50066;SDS011;35952;52.524;13.340;2023-04-06T03:35:13;10.60;;;8.07;;
50066;SDS011;35952;52.524;13.340;2023-04-06T03:37:39;7.82;;;7.03;;
50066;SDS011;35952;52.524;13.340;2023-04-06T03:40:05;9.50;;;7.53;;
50066;SDS011;35952;52.524;13.340;2023-04-06T03:42:31;10.68;;;7.68;;
50066;SDS011;35952;52.524;13.340;2023-04-06T03:44:57;12.70;;;7.20;;
50066;SDS011;35952;52.524;13.340;2023-04-06T03:47:23;12.93;;;8.70;;
50066;SDS011;35952;52.524;13.340;2023-04-06T03:49:48;10.73;;;7.60;;
50066;SDS011;35952;52.524;13.340;2023-04-06T03:52:14;9.33;;;8.37;;
50066;SDS011;35952;52.524;13.340;2023-04-06T03:54:39;9.97;;;8.60;;
50066;SDS011;35952;52.524;13.340;2023-04-06T03:57:05;11.43;;;8.97;;
50066;SDS011;35952;52.524;13.340;2023-04-06T03:59:30;9.83;;;8.00;;
50066;SDS011;35952;52.524;13.340;2023-04-06T04:01:56;12.40;;;9.77;;
50066;SDS011;35952;52.524;13.340;2023-04-06T04:04:21;11.50;;;10.30;;
50066;SDS011;35952;52.524;13.340;2023-04-06T04:06:47;9.40;;;8.50;;
50066;SDS011;35952;52.524;13.340;2023-04-06T04:09:12;11.17;;;10.17;;
50066;SDS011;35952;52.524;13.340;2023-04-06T04:11:38;8.93;;;8.13;;
50066;SDS011;35952;52.524;13.340;2023-04-06T04:14:03;13.30;;;10.23;;
50066;SDS011;35952;52.524;13.340;2023-04-06T04:16:29;12.37;;;9.50;;
50066;SDS011;35952;52.524;13.340;2023-04-06T04:18:55;11.47;;;9.50;;
50066;SDS011;35952;52.524;13.340;2023-04-06T04:21:20;10.97;;;9.87;;
50066;SDS011;35952;52.524;13.340;2023-04-06T04:23:46;9.97;;;8.93;;
50066;SDS011;35952;52.524;13.340;2023-04-06T04:26:11;10.53;;;9.50;;
50066;SDS011;35952;52.524;13.340;2023-04-06T04:28:37;10.40;;;9.40;;
50066;SDS011;35952;52.524;13.340;2023-04-06T04:31:02;15.87;;;10.90;;
50066;SDS011;35952;52.524;13.340;2023-04-06T04:33:28;12.13;;;10.80;;
50066;SDS011;35952;52.524;13.340;2023-04-06T04:35:54;15.10;;;10.37;;
50066;SDS011;35952;52.524;13.340;2023-04-06T04:38:19;14.23;;;11.33;;
50066;SDS011;35952;52.524;13.340;2023-04-06T04:40:45;12.57;;;10.57;;
50066;SDS011;35952;52.524;13.340;2023-04-06T04:43:10;16.67;;;11.97;;
50066;SDS011;35952;52.524;13.340;2023-04-06T04:45:36;12.90;;;11.23;;
50066;SDS011;35952;52.524;13.340;2023-04-06T04:48:01;14.00;;;11.63;;
50066;SDS011;35952;52.524;13.340;2023-04-06T04:50:27;13.13;;;11.10;;
50066;SDS011;35952;52.524;13.340;2023-04-06T04:52:52;12.43;;;11.23;;
50066;SDS011;35952;52.524;13.340;2023-04-06T04:55:18;15.43;;;11.73;;
50066;SDS011;35952;52.524;13.340;2023-04-06T04:57:44;14.23;;;12.73;;
50066;SDS011;35952;52.524;13.340;2023-04-06T05:00:10;13.90;;;12.03;;
50066;SDS011;35952;52.524;13.340;2023-04-06T05:02:36;15.30;;;12.68;;
50066;SDS011;35952;52.524;13.340;2023-04-06T05:05:01;13.27;;;11.90;;
50066;SDS011;35952;52.524;13.340;2023-04-06T05:07:27;12.93;;;11.63;;
50066;SDS011;35952;52.524;13.340;2023-04-06T05:09:52;20.70;;;12.67;;
50066;SDS011;35952;52.524;13.340;2023-04-06T05:12:18;14.43;;;11.77;;
50066;SDS011;35952;52.524;13.340;2023-04-06T05:14:44;12.18;;;10.80;;
50066;SDS011;35952;52.524;13.340;2023-04-06T05:17:10;15.93;;;11.73;;
50066;SDS011;35952;52.524;13.340;2023-04-06T05:19:35;15.40;;;11.07;;
50066;SDS011;35952;52.524;13.340;2023-04-06T05:22:01;12.10;;;10.90;;
50066;SDS011;35952;52.524;13.340;2023-04-06T05:24:27;16.70;;;12.57;;
50066;SDS011;35952;52.524;13.340;2023-04-06T05:26:52;12.83;;;11.53;;
50066;SDS011;35952;52.524;13.340;2023-04-06T05:29:18;13.70;;;11.07;;
50066;SDS011;35952;52.524;13.340;2023-04-06T05:31:43;12.43;;;11.13;;
50066;SDS011;35952;52.524;13.340;2023-04-06T05:34:09;14.53;;;11.03;;
50066;SDS011;35952;52.524;13.340;2023-04-06T05:36:35;20.55;;;13.18;;
50066;SDS011;35952;52.524;13.340;2023-04-06T05:39:01;14.77;;;13.10;;
50066;SDS011;35952;52.524;13.340;2023-04-06T05:41:26;13.33;;;11.70;;
50066;SDS011;35952;52.524;13.340;2023-04-06T05:43:52;14.07;;;12.13;;
50066;SDS011;35952;52.524;13.340;2023-04-06T05:46:18;31.17;;;12.90;;
50066;SDS011;35952;52.524;13.340;2023-04-06T05:48:43;23.13;;;12.60;;
50066;SDS011;35952;52.524;13.340;2023-04-06T05:51:10;14.90;;;13.33;;
50066;SDS011;35952;52.524;13.340;2023-04-06T05:53:35;16.43;;;13.10;;
50066;SDS011;35952;52.524;13.340;2023-04-06T05:56:01;16.10;;;12.30;;
50066;SDS011;35952;52.524;13.340;2023-04-06T05:58:27;18.23;;;12.70;;
50066;SDS011;35952;52.524;13.340;2023-04-06T06:00:59;13.50;;;12.20;;
50066;SDS011;35952;52.524;13.340;2023-04-06T06:03:25;18.03;;;12.93;;
50066;SDS011;35952;52.524;13.340;2023-04-06T06:05:51;13.40;;;12.10;;
50066;SDS011;35952;52.524;13.340;2023-04-06T06:08:16;15.70;;;11.73;;
50066;SDS011;35952;52.524;13.340;2023-04-06T06:10:42;12.80;;;11.63;;
50066;SDS011;35952;52.524;13.340;2023-04-06T06:13:08;14.03;;;12.73;;
50066;SDS011;35952;52.524;13.340;2023-04-06T06:15:33;16.87;;;13.17;;
50066;SDS011;35952;52.524;13.340;2023-04-06T06:17:59;14.70;;;11.80;;
50066;SDS011;35952;52.524;13.340;2023-04-06T06:20:25;13.53;;;12.23;;
50066;SDS011;35952;52.524;13.340;2023-04-06T06:22:51;14.47;;;12.97;;
50066;SDS011;35952;52.524;13.340;2023-04-06T06:25:17;13.10;;;11.90;;
50066;SDS011;35952;52.524;13.340;2023-04-06T06:27:42;14.63;;;12.10;;
50066;SDS011;35952;52.524;13.340;2023-04-06T06:30:08;17.73;;;13.60;;
50066;SDS011;35952;52.524;13.340;2023-04-06T06:32:33;14.93;;;12.60;;
50066;SDS011;35952;52.524;13.340;2023-04-06T06:35:00;13.90;;;12.50;;
50066;SDS011;35952;52.524;13.340;2023-04-06T06:37:25;15.63;;;13.73;;
50066;SDS011;35952;52.524;13.340;2023-04-06T06:39:51;14.67;;;11.20;;
50066;SDS011;35952;52.524;13.340;2023-04-06T06:42:16;12.37;;;11.20;;
50066;SDS011;35952;52.524;13.340;2023-04-06T06:44:42;13.23;;;11.83;;
50066;SDS011;35952;52.524;13.340;2023-04-06T06:47:08;16.13;;;12.10;;
50066;SDS011;35952;52.524;13.340;2023-04-06T06:49:33;12.83;;;11.17;;
50066;SDS011;35952;52.524;13.340;2023-04-06T06:51:59;13.83;;;12.23;;
50066;SDS011;35952;52.524;13.340;2023-04-06T06:54:24;13.13;;;11.67;;
50066;SDS011;35952;52.524;13.340;2023-04-06T06:56:53;15.03;;;11.00;;
50066;SDS011;35952;52.524;13.340;2023-04-06T06:59:19;12.67;;;11.40;;
50066;SDS011;35952;52.524;13.340;2023-04-06T07:01:47;13.00;;;11.63;;
50066;SDS011;35952;52.524;13.340;2023-04-06T07:04:13;13.17;;;10.60;;
50066;SDS011;35952;52.524;13.340;2023-04-06T07:06:39;10.80;;;9.70;;
50066;SDS011;35952;52.524;13.340;2023-04-06T07:09:04;13.47;;;10.23;;
50066;SDS011;35952;52.524;13.340;2023-04-06T07:11:30;11.23;;;10.13;;
50066;SDS011;35952;52.524;13.340;2023-04-06T07:13:55;11.63;;;10.30;;
50066;SDS011;35952;52.524;13.340;2023-04-06T07:16:21;15.50;;;10.57;;
50066;SDS011;35952;52.524;13.340;2023-04-06T07:18:47;10.67;;;9.57;;
50066;SDS011;35952;52.524;13.340;2023-04-06T07:21:12;10.70;;;9.00;;
50066;SDS011;35952;52.524;13.340;2023-04-06T07:23:38;13.33;;;9.07;;
50066;SDS011;35952;52.524;13.340;2023-04-06T07:26:04;10.33;;;9.40;;
50066;SDS011;35952;52.524;13.340;2023-04-06T07:28:29;12.30;;;8.37;;
50066;SDS011;35952;52.524;13.340;2023-04-06T07:30:55;15.80;;;9.80;;
50066;SDS011;35952;52.524;13.340;2023-04-06T07:33:20;12.20;;;10.40;;
50066;SDS011;35952;52.524;13.340;2023-04-06T07:35:46;9.63;;;8.73;;
50066;SDS011;35952;52.524;13.340;2023-04-06T07:38:12;13.63;;;8.00;;
50066;SDS011;35952;52.524;13.340;2023-04-06T07:40:37;10.03;;;7.97;;
50066;SDS011;35952;52.524;13.340;2023-04-06T07:43:03;7.63;;;6.93;;
50066;SDS011;35952;52.524;13.340;2023-04-06T07:45:29;8.90;;;7.20;;
50066;SDS011;35952;52.524;13.340;2023-04-06T07:47:54;10.60;;;7.67;;
50066;SDS011;35952;52.524;13.340;2023-04-06T07:50:20;7.70;;;7.00;;
50066;SDS011;35952;52.524;13.340;2023-04-06T07:52:46;7.77;;;7.07;;
50066;SDS011;35952;52.524;13.340;2023-04-06T07:55:11;8.60;;;7.40;;
50066;SDS011;35952;52.524;13.340;2023-04-06T07:57:37;7.33;;;6.60;;
50066;SDS011;35952;52.524;13.340;2023-04-06T08:00:03;15.23;;;8.37;;
50066;SDS011;35952;52.524;13.340;2023-04-06T08:02:29;9.37;;;7.50;;
50066;SDS011;35952;52.524;13.340;2023-04-06T08:04:56;8.00;;;6.03;;
50066;SDS011;35952;52.524;13.340;2023-04-06T08:07:21;7.13;;;6.47;;
50066;SDS011;35952;52.524;13.340;2023-04-06T08:09:47;7.30;;;6.10;;
50066;SDS011;35952;52.524;13.340;2023-04-06T08:12:12;29.00;;;26.03;;
50066;SDS011;35952;52.524;13.340;2023-04-06T08:14:38;7.73;;;6.93;;
50066;SDS011;35952;52.524;13.340;2023-04-06T08:17:04;6.57;;;5.13;;
50066;SDS011;35952;52.524;13.340;2023-04-06T08:19:29;15.47;;;6.63;;
50066;SDS011;35952;52.524;13.340;2023-04-06T08:21:55;7.30;;;6.13;;
50066;SDS011;35952;52.524;13.340;2023-04-06T08:24:20;6.23;;;5.73;;
50066;SDS011;35952;52.524;13.340;2023-04-06T08:26:46;7.33;;;6.40;;
50066;SDS011;35952;52.524;13.340;2023-04-06T08:29:11;5.90;;;5.30;;
50066;SDS011;35952;52.524;13.340;2023-04-06T08:31:37;5.43;;;4.73;;
50066;SDS011;35952;52.524;13.340;2023-04-06T08:34:03;5.17;;;4.70;;
50066;SDS011;35952;52.524;13.340;2023-04-06T08:36:30;7.00;;;5.40;;
50066;SDS011;35952;52.524;13.340;2023-04-06T08:38:56;5.97;;;4.70;;
50066;SDS011;35952;52.524;13.340;2023-04-06T08:41:22;9.00;;;4.50;;
50066;SDS011;35952;52.524;13.340;2023-04-06T08:43:51;5.80;;;4.90;;
50066;SDS011;35952;52.524;13.340;2023-04-06T08:46:21;6.90;;;6.17;;
50066;SDS011;35952;52.524;13.340;2023-04-06T08:48:48;6.63;;;5.40;;
50066;SDS011;35952;52.524;13.340;2023-04-06T08:51:14;3.97;;;3.57;;
50066;SDS011;35952;52.524;13.340;2023-04-06T08:53:40;11.47;;;4.30;;
50066;SDS011;35952;52.524;13.340;2023-04-06T08:56:06;4.20;;;3.83;;
50066;SDS011;35952;52.524;13.340;2023-04-06T08:58:35;5.13;;;4.70;;
50066;SDS011;35952;52.524;13.340;2023-04-06T09:01:03;5.13;;;4.73;;
50066;SDS011;35952;52.524;13.340;2023-04-06T09:03:33;8.80;;;5.63;;
50066;SDS011;35952;52.524;13.340;2023-04-06T09:06:01;6.00;;;5.30;;
50066;SDS011;35952;52.524;13.340;2023-04-06T09:08:29;4.43;;;4.10;;
50066;SDS011;35952;52.524;13.340;2023-04-06T09:10:54;5.77;;;4.97;;
50066;SDS011;35952;52.524;13.340;2023-04-06T09:13:20;5.50;;;3.60;;
50066;SDS011;35952;52.524;13.340;2023-04-06T09:15:45;4.37;;;3.97;;
50066;SDS011;35952;52.524;13.340;2023-04-06T09:18:11;5.00;;;3.97;;
50066;SDS011;35952;52.524;13.340;2023-04-06T09:20:36;3.43;;;3.10;;
50066;SDS011;35952;52.524;13.340;2023-04-06T09:23:02;5.93;;;4.30;;
50066;SDS011;35952;52.524;13.340;2023-04-06T09:25:28;4.27;;;3.33;;
50066;SDS011;35952;52.524;13.340;2023-04-06T09:28:03;3.30;;;3.00;;
50066;SDS011;35952;52.524;13.340;2023-04-06T09:30:29;4.30;;;3.67;;
50066;SDS011;35952;52.524;13.340;2023-04-06T09:32:55;4.07;;;3.70;;
50066;SDS011;35952;52.524;13.340;2023-04-06T09:35:22;7.20;;;4.90;;
50066;SDS011;35952;52.524;13.340;2023-04-06T09:37:49;5.93;;;3.60;;
50066;SDS011;35952;52.524;13.340;2023-04-06T09:40:16;3.30;;;3.00;;
50066;SDS011;35952;52.524;13.340;2023-04-06T09:42:47;3.20;;;2.80;;
50066;SDS011;35952;52.524;13.340;2023-04-06T09:45:14;4.07;;;2.80;;
50066;SDS011;35952;52.524;13.340;2023-04-06T09:47:44;3.50;;;3.30;;
50066;SDS011;35952;52.524;13.340;2023-04-06T09:50:11;2.80;;;2.57;;
50066;SDS011;35952;52.524;13.340;2023-04-06T09:55:06;4.57;;;3.43;;
50066;SDS011;35952;52.524;13.340;2023-04-06T09:57:48;3.40;;;3.10;;
50066;SDS011;35952;52.524;13.340;2023-04-06T10:00:19;16.63;;;3.70;;
50066;SDS011;35952;52.524;13.340;2023-04-06T10:08:37;3.40;;;3.10;;
50066;SDS011;35952;52.524;13.340;2023-04-06T10:11:08;3.30;;;3.00;;
50066;SDS011;35952;52.524;13.340;2023-04-06T10:13:35;2.93;;;2.73;;
50066;SDS011;35952;52.524;13.340;2023-04-06T10:16:01;3.37;;;2.60;;
50066;SDS011;35952;52.524;13.340;2023-04-06T10:18:27;3.20;;;2.90;;
50066;SDS011;35952;52.524;13.340;2023-04-06T10:20:57;3.93;;;2.73;;
50066;SDS011;35952;52.524;13.340;2023-04-06T10:23:39;3.10;;;2.90;;
50066;SDS011;35952;52.524;13.340;2023-04-06T10:26:12;3.33;;;2.53;;
50066;SDS011;35952;52.524;13.340;2023-04-06T10:28:40;3.57;;;3.27;;
50066;SDS011;35952;52.524;13.340;2023-04-06T10:31:07;2.87;;;2.67;;
50066;SDS011;35952;52.524;13.340;2023-04-06T10:33:32;3.70;;;2.83;;
50066;SDS011;35952;52.524;13.340;2023-04-06T10:38:40;3.20;;;2.90;;
50066;SDS011;35952;52.524;13.340;2023-04-06T10:41:11;3.37;;;2.83;;
50066;SDS011;35952;52.524;13.340;2023-04-06T10:43:38;3.87;;;3.30;;
50066;SDS011;35952;52.524;13.340;2023-04-06T10:46:05;3.70;;;3.43;;
50066;SDS011;35952;52.524;13.340;2023-04-06T10:48:42;3.40;;;3.10;;
50066;SDS011;35952;52.524;13.340;2023-04-06T10:51:14;3.40;;;3.10;;
50066;SDS011;35952;52.524;13.340;2023-04-06T10:53:41;3.70;;;3.23;;
50066;SDS011;35952;52.524;13.340;2023-04-06T10:56:14;4.10;;;3.50;;
50066;SDS011;35952;52.524;13.340;2023-04-06T10:58:45;3.63;;;3.33;;
50066;SDS011;35952;52.524;13.340;2023-04-06T11:01:18;8.00;;;4.37;;
50066;SDS011;35952;52.524;13.340;2023-04-06T11:03:45;3.40;;;3.10;;
50066;SDS011;35952;52.524;13.340;2023-04-06T11:06:17;3.10;;;2.83;;
50066;SDS011;35952;52.524;13.340;2023-04-06T11:08:43;3.63;;;3.13;;
50066;SDS011;35952;52.524;13.340;2023-04-06T11:11:13;4.03;;;3.17;;
50066;SDS011;35952;52.524;13.340;2023-04-06T11:13:41;4.40;;;3.50;;
50066;SDS011;35952;52.524;13.340;2023-04-06T11:16:13;5.53;;;3.50;;
50066;SDS011;35952;52.524;13.340;2023-04-06T11:19:02;3.90;;;3.60;;
50066;SDS011;35952;52.524;13.340;2023-04-06T11:21:38;3.33;;;3.13;;
50066;SDS011;35952;52.524;13.340;2023-04-06T11:26:49;4.27;;;3.30;;
50066;SDS011;35952;52.524;13.340;2023-04-06T11:29:17;3.50;;;3.20;;
50066;SDS011;35952;52.524;13.340;2023-04-06T11:34:17;3.80;;;3.40;;
50066;SDS011;35952;52.524;13.340;2023-04-06T11:36:45;3.63;;;3.33;;
50066;SDS011;35952;52.524;13.340;2023-04-06T11:39:17;3.27;;;2.97;;
50066;SDS011;35952;52.524;13.340;2023-04-06T11:41:48;3.80;;;3.37;;
50066;SDS011;35952;52.524;13.340;2023-04-06T11:44:14;4.13;;;3.57;;
50066;SDS011;35952;52.524;13.340;2023-04-06T11:46:40;4.40;;;3.90;;
50066;SDS011;35952;52.524;13.340;2023-04-06T11:49:06;10.70;;;9.23;;
50066;SDS011;35952;52.524;13.340;2023-04-06T11:51:35;3.27;;;3.03;;
50066;SDS011;35952;52.524;13.340;2023-04-06T11:54:01;5.70;;;3.87;;
50066;SDS011;35952;52.524;13.340;2023-04-06T11:56:30;4.93;;;3.37;;
50066;SDS011;35952;52.524;13.340;2023-04-06T11:58:56;3.83;;;3.27;;
50066;SDS011;35952;52.524;13.340;2023-04-06T12:01:24;4.93;;;3.40;;
50066;SDS011;35952;52.524;13.340;2023-04-06T12:03:50;3.47;;;2.93;;
50066;SDS011;35952;52.524;13.340;2023-04-06T12:06:17;4.53;;;3.70;;
50066;SDS011;35952;52.524;13.340;2023-04-06T12:08:43;3.70;;;3.40;;
50066;SDS011;35952;52.524;13.340;2023-04-06T12:11:09;4.13;;;3.73;;
50066;SDS011;35952;52.524;13.340;2023-04-06T12:13:35;3.83;;;3.20;;
50066;SDS011;35952;52.524;13.340;2023-04-06T12:16:01;8.90;;;3.63;;
50066;SDS011;35952;52.524;13.340;2023-04-06T12:18:26;4.40;;;4.00;;
50066;SDS011;35952;52.524;13.340;2023-04-06T12:20:52;4.60;;;4.20;;
50066;SDS011;35952;52.524;13.340;2023-04-06T12:23:18;4.50;;;4.10;;
50066;SDS011;35952;52.524;13.340;2023-04-06T12:25:44;5.33;;;4.10;;
50066;SDS011;35952;52.524;13.340;2023-04-06T12:28:09;4.70;;;4.03;;
50066;SDS011;35952;52.524;13.340;2023-04-06T12:30:35;4.67;;;4.27;;
50066;SDS011;35952;52.524;13.340;2023-04-06T12:33:00;5.20;;;4.80;;
50066;SDS011;35952;52.524;13.340;2023-04-06T12:35:26;5.07;;;4.57;;
50066;SDS011;35952;52.524;13.340;2023-04-06T12:37:52;5.70;;;4.30;;
50066;SDS011;35952;52.524;13.340;2023-04-06T12:40:18;4.47;;;3.93;;
50066;SDS011;35952;52.524;13.340;2023-04-06T12:42:43;3.90;;;3.50;;
50066;SDS011;35952;52.524;13.340;2023-04-06T12:45:10;3.80;;;3.50;;
50066;SDS011;35952;52.524;13.340;2023-04-06T12:47:36;4.30;;;3.90;;
50066;SDS011;35952;52.524;13.340;2023-04-06T12:50:02;3.93;;;3.63;;
50066;SDS011;35952;52.524;13.340;2023-04-06T12:52:28;5.03;;;3.93;;
50066;SDS011;35952;52.524;13.340;2023-04-06T12:54:56;4.43;;;4.13;;
50066;SDS011;35952;52.524;13.340;2023-04-06T12:57:22;5.90;;;5.30;;
50066;SDS011;35952;52.524;13.340;2023-04-06T12:59:47;4.50;;;4.20;;
50066;SDS011;35952;52.524;13.340;2023-04-06T13:02:13;4.57;;;4.17;;
50066;SDS011;35952;52.524;13.340;2023-04-06T13:04:39;6.07;;;3.97;;
50066;SDS011;35952;52.524;13.340;2023-04-06T13:07:04;5.37;;;4.27;;
50066;SDS011;35952;52.524;13.340;2023-04-06T13:09:30;4.80;;;4.37;;
50066;SDS011;35952;52.524;13.340;2023-04-06T13:11:55;4.83;;;4.43;;
50066;SDS011;35952;52.524;13.340;2023-04-06T13:14:21;5.40;;;4.60;;
50066;SDS011;35952;52.524;13.340;2023-04-06T13:16:47;4.50;;;4.10;;
50066;SDS011;35952;52.524;13.340;2023-04-06T13:19:12;7.70;;;4.60;;
50066;SDS011;35952;52.524;13.340;2023-04-06T13:21:38;4.40;;;4.10;;
50066;SDS011;35952;52.524;13.340;2023-04-06T13:24:04;4.00;;;3.40;;
50066;SDS011;35952;52.524;13.340;2023-04-06T13:26:30;4.40;;;3.70;;
50066;SDS011;35952;52.524;13.340;2023-04-06T13:28:56;4.67;;;4.23;;
50066;SDS011;35952;52.524;13.340;2023-04-06T13:31:22;5.40;;;4.90;;
50066;SDS011;35952;52.524;13.340;2023-04-06T13:33:47;4.70;;;4.30;;
50066;SDS011;35952;52.524;13.340;2023-04-06T13:36:13;5.30;;;4.53;;
50066;SDS011;35952;52.524;13.340;2023-04-06T13:38:38;5.53;;;4.43;;
50066;SDS011;35952;52.524;13.340;2023-04-06T13:41:04;5.50;;;4.97;;
50066;SDS011;35952;52.524;13.340;2023-04-06T13:43:30;4.50;;;4.07;;
50066;SDS011;35952;52.524;13.340;2023-04-06T13:45:57;5.00;;;4.50;;
50066;SDS011;35952;52.524;13.340;2023-04-06T13:48:25;6.50;;;5.60;;
50066;SDS011;35952;52.524;13.340;2023-04-06T13:50:51;8.27;;;7.57;;
50066;SDS011;35952;52.524;13.340;2023-04-06T13:53:17;11.03;;;10.00;;
50066;SDS011;35952;52.524;13.340;2023-04-06T13:55:43;7.30;;;4.53;;
50066;SDS011;35952;52.524;13.340;2023-04-06T13:58:16;4.53;;;4.20;;
50066;SDS011;35952;52.524;13.340;2023-04-06T14:00:42;5.00;;;4.60;;
50066;SDS011;35952;52.524;13.340;2023-04-06T14:03:07;5.07;;;4.67;;
50066;SDS011;35952;52.524;13.340;2023-04-06T14:05:33;5.77;;;5.20;;
50066;SDS011;35952;52.524;13.340;2023-04-06T14:07:59;5.93;;;5.33;;
50066;SDS011;35952;52.524;13.340;2023-04-06T14:10:24;7.90;;;7.20;;
50066;SDS011;35952;52.524;13.340;2023-04-06T14:12:52;6.73;;;5.43;;
50066;SDS011;35952;52.524;13.340;2023-04-06T14:15:17;4.63;;;4.23;;
50066;SDS011;35952;52.524;13.340;2023-04-06T14:17:43;6.57;;;5.50;;
50066;SDS011;35952;52.524;13.340;2023-04-06T14:20:09;6.73;;;4.00;;
50066;SDS011;35952;52.524;13.340;2023-04-06T14:22:39;4.20;;;3.90;;
50066;SDS011;35952;52.524;13.340;2023-04-06T14:25:06;4.60;;;4.20;;
50066;SDS011;35952;52.524;13.340;2023-04-06T14:27:32;4.03;;;3.73;;
50066;SDS011;35952;52.524;13.340;2023-04-06T14:29:57;3.30;;;3.10;;
50066;SDS011;35952;52.524;13.340;2023-04-06T14:32:22;3.77;;;3.37;;
50066;SDS011;35952;52.524;13.340;2023-04-06T14:34:49;3.53;;;3.30;;
50066;SDS011;35952;52.524;13.340;2023-04-06T14:37:15;3.60;;;3.30;;
50066;SDS011;35952;52.524;13.340;2023-04-06T14:39:42;4.13;;;3.83;;